createdAt,value
2024-01-18T00:00:50.335Z,100.00
2024-01-18T00:03:40.703Z,100.00
2024-01-18T00:06:11.048Z,100.00
2024-01-18T00:08:40.464Z,100.00
2024-01-18T00:11:09.151Z,100.00
2024-01-18T00:13:38.334Z,100.00
2024-01-18T00:16:06.564Z,100.00
2024-01-18T00:18:35.000Z,100.00
2024-01-18T00:21:04.930Z,100.00
2024-01-18T00:23:33.176Z,100.00
2024-01-18T00:26:01.586Z,100.00
2024-01-18T00:28:30.442Z,100.00
2024-01-18T00:30:59.102Z,100.00
2024-01-18T00:33:27.420Z,100.00
2024-01-18T00:35:56.050Z,100.00
2024-01-18T00:38:43.986Z,100.00
2024-01-18T00:41:12.413Z,100.00
2024-01-18T00:43:40.603Z,100.00
2024-01-18T00:46:08.998Z,100.00
2024-01-18T00:48:37.678Z,100.00
2024-01-18T00:51:06.140Z,100.00
2024-01-18T00:53:34.409Z,100.00
2024-01-18T00:56:02.646Z,100.00
2024-01-18T00:58:31.119Z,100.00
2024-01-18T01:01:00.334Z,100.00
2024-01-18T01:03:28.850Z,100.00
2024-01-18T01:05:57.280Z,100.00
2024-01-18T01:08:25.523Z,100.00
2024-01-18T01:10:53.759Z,100.00
2024-01-18T01:13:22.392Z,100.00
2024-01-18T01:15:50.677Z,100.00
2024-01-18T01:18:20.573Z,100.00
2024-01-18T01:20:56.064Z,100.00
2024-01-18T01:23:28.669Z,100.00
2024-01-18T01:25:57.101Z,100.00
2024-01-18T01:28:25.318Z,100.00
2024-01-18T01:30:53.577Z,100.00
2024-01-18T01:33:22.063Z,100.00
2024-01-18T01:35:50.783Z,100.00
2024-01-18T01:38:20.678Z,100.00
2024-01-18T01:40:49.759Z,100.00
2024-01-18T01:43:18.797Z,100.00
2024-01-18T01:45:47.549Z,100.00
2024-01-18T01:48:16.517Z,100.00
2024-01-18T01:50:45.282Z,100.00
2024-01-18T01:53:14.950Z,100.00
2024-01-18T01:56:07.380Z,100.00
2024-01-18T01:58:39.169Z,100.00
2024-01-18T02:01:10.284Z,100.00
2024-01-18T02:03:39.692Z,100.00
2024-01-18T02:06:09.157Z,100.00
2024-01-18T02:08:38.752Z,100.00
2024-01-18T02:11:08.262Z,100.00
2024-01-18T02:13:39.191Z,100.00
2024-01-18T02:16:07.689Z,100.00
2024-01-18T02:18:37.321Z,100.00
2024-01-18T02:21:10.445Z,100.00
2024-01-18T02:24:07.016Z,100.00
2024-01-18T02:26:43.778Z,100.00
2024-01-18T02:29:12.031Z,100.00
2024-01-18T02:31:42.913Z,100.00
2024-01-18T02:34:14.115Z,100.00
2024-01-18T02:36:42.425Z,100.00
2024-01-18T02:39:11.048Z,100.00
2024-01-18T02:41:40.233Z,100.00
2024-01-18T02:44:09.172Z,100.00
2024-01-18T02:46:37.391Z,100.00
2024-01-18T02:49:06.379Z,100.00
2024-01-18T02:51:35.303Z,100.00
2024-01-18T02:54:03.716Z,100.00
2024-01-18T02:56:32.265Z,100.00
2024-01-18T02:59:29.265Z,100.00
2024-01-18T03:01:59.059Z,100.00
2024-01-18T03:04:27.325Z,100.00
2024-01-18T03:06:56.003Z,100.00
2024-01-18T03:09:32.146Z,100.00
2024-01-18T03:12:01.073Z,100.00
2024-01-18T03:14:29.283Z,100.00
2024-01-18T03:16:57.597Z,100.00
2024-01-18T03:19:33.955Z,100.00
2024-01-18T03:22:02.982Z,100.00
2024-01-18T03:24:32.077Z,100.00
2024-01-18T03:27:00.407Z,100.00
2024-01-18T03:29:41.288Z,100.00
2024-01-18T03:32:09.947Z,100.00
2024-01-18T03:34:38.558Z,100.00
2024-01-18T03:37:06.786Z,100.00
2024-01-18T03:39:39.157Z,100.00
2024-01-18T03:42:09.129Z,100.00
2024-01-18T03:44:37.431Z,100.00
2024-01-18T03:47:05.779Z,100.00
2024-01-18T03:49:34.481Z,100.00
2024-01-18T03:52:02.714Z,100.00
2024-01-18T03:54:30.933Z,100.00
2024-01-18T03:56:59.302Z,100.00
2024-01-18T03:59:36.372Z,100.00
2024-01-18T04:02:04.608Z,100.00
2024-01-18T04:04:33.681Z,100.00
2024-01-18T04:07:02.057Z,100.00
2024-01-18T04:09:49.281Z,100.00
2024-01-18T04:12:19.638Z,100.00
2024-01-18T04:14:47.940Z,100.00
2024-01-18T04:17:16.789Z,100.00
2024-01-18T04:19:45.073Z,100.00
2024-01-18T04:22:13.359Z,100.00
2024-01-18T04:24:42.555Z,100.00
2024-01-18T04:27:10.870Z,100.00
2024-01-18T04:29:39.433Z,100.00
2024-01-18T04:32:07.663Z,100.00
2024-01-18T04:34:36.279Z,100.00
2024-01-18T04:37:04.946Z,100.00
2024-01-18T04:39:34.797Z,100.00
2024-01-18T04:42:03.082Z,100.00
2024-01-18T04:45:04.288Z,100.00
2024-01-18T04:47:32.592Z,100.00
2024-01-18T04:50:02.824Z,100.00
2024-01-18T04:52:31.774Z,100.00
2024-01-18T04:55:04.347Z,100.00
2024-01-18T04:57:37.099Z,100.00
2024-01-18T05:00:11.901Z,100.00
2024-01-18T05:02:40.866Z,100.00
2024-01-18T05:05:11.397Z,100.00
2024-01-18T05:07:43.800Z,100.00
2024-01-18T05:10:13.346Z,100.00
2024-01-18T05:13:01.138Z,100.00
2024-01-18T05:15:29.464Z,100.00
2024-01-18T05:18:02.097Z,100.00
2024-01-18T05:20:30.808Z,100.00
2024-01-18T05:22:59.085Z,100.00
2024-01-18T05:25:27.802Z,100.00
2024-01-18T05:27:58.831Z,100.00
2024-01-18T05:30:27.088Z,100.00
2024-01-18T05:32:55.922Z,100.00
2024-01-18T05:35:24.137Z,100.00
2024-01-18T05:38:00.836Z,100.00
2024-01-18T05:40:29.056Z,100.00
2024-01-18T05:42:57.225Z,100.00
2024-01-18T05:45:25.622Z,100.00
2024-01-18T05:48:24.323Z,100.00
2024-01-18T05:50:52.558Z,100.00
2024-01-18T05:53:21.364Z,100.00
2024-01-18T05:55:50.377Z,100.00
2024-01-18T05:58:20.358Z,100.00
2024-01-18T06:00:49.625Z,100.00
2024-01-18T06:03:20.878Z,100.00
2024-01-18T06:05:49.245Z,100.00
2024-01-18T06:08:18.982Z,100.00
2024-01-18T06:10:47.617Z,100.00
2024-01-18T06:13:16.032Z,100.00
2024-01-18T06:15:48.036Z,100.00
2024-01-18T06:18:16.418Z,100.00
2024-01-18T06:20:45.657Z,100.00
2024-01-18T06:23:24.937Z,100.00
2024-01-18T06:25:53.113Z,100.00
2024-01-18T06:28:21.605Z,100.00
2024-01-18T06:30:51.184Z,100.00
2024-01-18T06:33:22.018Z,100.00
2024-01-18T06:35:50.602Z,100.00
2024-01-18T06:38:22.958Z,100.00
2024-01-18T06:40:51.537Z,100.00
2024-01-18T06:43:21.165Z,100.00
2024-01-18T06:45:55.938Z,100.00
2024-01-18T06:48:25.476Z,100.00
2024-01-18T06:50:53.755Z,100.00
2024-01-18T06:53:22.023Z,100.00
2024-01-18T06:55:51.057Z,100.00
2024-01-18T06:58:35.839Z,100.00
2024-01-18T07:01:04.158Z,100.00
2024-01-18T07:03:32.589Z,100.00
2024-01-18T07:06:01.629Z,100.00
2024-01-18T07:08:31.432Z,100.00
2024-01-18T07:10:59.333Z,100.00
2024-01-18T07:13:29.661Z,100.00
2024-01-18T07:15:57.942Z,100.00
2024-01-18T07:18:26.227Z,100.00
2024-01-18T07:20:54.583Z,100.00
2024-01-18T07:23:22.821Z,100.00
2024-01-18T07:25:52.417Z,100.00
2024-01-18T07:28:21.237Z,100.00
2024-01-18T07:30:50.087Z,100.00
2024-01-18T07:33:39.873Z,100.00
2024-01-18T07:36:08.694Z,100.00
2024-01-18T07:38:36.969Z,100.00
2024-01-18T07:41:05.869Z,100.00
2024-01-18T07:43:34.225Z,100.00
2024-01-18T07:46:02.512Z,100.00
2024-01-18T07:48:34.608Z,100.00
2024-01-18T07:51:02.959Z,100.00
2024-01-18T07:53:31.209Z,100.00
2024-01-18T07:56:00.091Z,100.00
2024-01-18T07:58:28.645Z,100.00
2024-01-18T08:00:56.955Z,100.00
2024-01-18T08:03:25.374Z,100.00
2024-01-18T08:05:53.668Z,100.00
2024-01-18T08:08:44.340Z,100.00
2024-01-18T08:11:19.971Z,100.00
2024-01-18T08:13:48.714Z,100.00
2024-01-18T08:16:17.201Z,100.00
2024-01-18T08:18:49.160Z,100.00
2024-01-18T08:21:18.737Z,100.00
2024-01-18T08:23:49.543Z,100.00
2024-01-18T08:26:19.731Z,100.00
2024-01-18T08:28:48.502Z,100.00
2024-01-18T08:31:18.109Z,100.00
2024-01-18T08:33:46.369Z,100.00
2024-01-18T08:36:18.392Z,100.00
2024-01-18T08:38:47.432Z,100.00
2024-01-18T08:41:15.640Z,100.00
2024-01-18T08:43:53.223Z,100.00
2024-01-18T08:46:21.455Z,100.00
2024-01-18T08:48:49.737Z,100.00
2024-01-18T08:51:20.309Z,100.00
2024-01-18T08:53:50.049Z,100.00
2024-01-18T08:56:27.103Z,100.00
2024-01-18T08:58:59.506Z,100.00
2024-01-18T09:01:28.131Z,100.00
2024-01-18T09:03:56.414Z,100.00
2024-01-18T09:06:24.669Z,100.00
2024-01-18T09:08:55.123Z,100.00
2024-01-18T09:11:23.440Z,100.00
2024-01-18T09:13:52.377Z,100.00
2024-01-18T09:16:20.719Z,100.00
2024-01-18T09:19:13.499Z,100.00
2024-01-18T09:21:46.729Z,100.00
2024-01-18T09:24:16.401Z,100.00
2024-01-18T09:26:44.682Z,100.00
2024-01-18T09:29:15.552Z,100.00
2024-01-18T09:31:44.251Z,100.00
2024-01-18T09:34:12.638Z,100.00
2024-01-18T09:36:42.126Z,100.00
2024-01-18T09:39:17.548Z,100.00
2024-01-18T09:41:54.617Z,100.00
2024-01-18T09:44:27.283Z,100.00
2024-01-18T09:47:18.480Z,100.00
2024-01-18T09:49:52.330Z,100.00
2024-01-18T09:52:21.932Z,99.85
2024-01-18T09:54:54.759Z,79.16
2024-01-18T09:57:33.864Z,74.13
2024-01-18T10:00:06.674Z,71.35
2024-01-18T10:02:39.455Z,66.79
2024-01-18T10:05:11.583Z,66.36
2024-01-18T10:07:40.490Z,65.24
2024-01-18T10:10:19.590Z,60.34
2024-01-18T10:12:59.453Z,54.58
2024-01-18T10:15:34.418Z,56.49
2024-01-18T10:18:05.488Z,55.26
2024-01-18T10:20:35.285Z,53.53
2024-01-18T10:23:04.742Z,58.51
2024-01-18T10:25:33.683Z,63.04
2024-01-18T10:28:04.576Z,56.00
2024-01-18T10:30:37.960Z,49.33
2024-01-18T10:33:06.514Z,45.12
2024-01-18T10:35:35.173Z,42.43
2024-01-18T10:38:05.474Z,40.65
2024-01-18T10:40:44.469Z,39.27
2024-01-18T10:43:52.678Z,39.06
2024-01-18T10:46:22.470Z,36.76
2024-01-18T10:48:53.878Z,40.40
2024-01-18T10:51:23.909Z,41.02
2024-01-18T10:53:57.342Z,46.44
2024-01-18T10:56:30.850Z,52.11
2024-01-18T10:58:59.478Z,55.90
2024-01-18T11:01:28.975Z,57.41
2024-01-18T11:03:57.514Z,60.75
2024-01-18T11:06:27.767Z,64.87
2024-01-18T11:08:58.458Z,68.27
2024-01-18T11:11:50.753Z,71.31
2024-01-18T11:14:20.817Z,73.70
2024-01-18T11:16:50.849Z,77.46
2024-01-18T11:19:39.641Z,78.33
2024-01-18T11:22:11.512Z,80.27
2024-01-18T11:24:42.010Z,82.61
2024-01-18T11:27:27.818Z,84.59
2024-01-18T11:29:56.999Z,85.58
2024-01-18T11:32:59.427Z,85.34
2024-01-18T11:35:28.510Z,86.69
2024-01-18T11:38:25.564Z,87.17
2024-01-18T11:41:06.632Z,87.90
2024-01-18T11:44:02.852Z,88.33
2024-01-18T11:47:00.224Z,89.31
2024-01-18T11:49:30.222Z,90.72
2024-01-18T11:51:59.594Z,91.46
2024-01-18T11:54:35.429Z,92.24
2024-01-18T11:57:05.232Z,92.70
2024-01-18T11:59:38.387Z,93.03
2024-01-18T12:02:08.023Z,93.62
2024-01-18T12:04:47.318Z,94.53
2024-01-18T12:07:18.738Z,94.73
2024-01-18T12:09:48.782Z,94.95
2024-01-18T12:12:22.547Z,95.36
2024-01-18T12:15:09.899Z,95.58
2024-01-18T12:17:38.658Z,96.27
2024-01-18T12:20:15.692Z,96.59
2024-01-18T12:22:46.718Z,97.13
2024-01-18T12:25:14.994Z,97.04
2024-01-18T12:27:44.708Z,97.40
2024-01-18T12:30:15.703Z,97.53
2024-01-18T12:32:44.276Z,96.93
2024-01-18T12:35:23.331Z,95.98
2024-01-18T12:37:52.515Z,96.57
2024-01-18T12:40:20.777Z,97.29
2024-01-18T12:43:26.410Z,98.86
2024-01-18T12:45:56.065Z,99.18
2024-01-18T12:48:25.407Z,99.28
2024-01-18T12:50:54.860Z,99.10
2024-01-18T12:53:46.758Z,100.00
2024-01-18T12:56:18.390Z,100.00
2024-01-18T12:58:47.685Z,100.00
2024-01-18T13:01:33.261Z,100.00
2024-01-18T13:04:29.420Z,100.00
2024-01-18T13:07:03.173Z,100.00
2024-01-18T13:09:35.704Z,100.00
2024-01-18T13:12:06.104Z,100.00
2024-01-18T13:14:37.532Z,100.00
2024-01-18T13:17:06.662Z,100.00
2024-01-18T13:19:35.262Z,100.00
2024-01-18T13:22:05.609Z,100.00
2024-01-18T13:24:33.980Z,100.00
2024-01-18T13:27:06.265Z,99.99
2024-01-18T13:29:35.514Z,99.25
2024-01-18T13:32:25.652Z,99.17
2024-01-18T13:34:55.157Z,99.28
2024-01-18T13:37:30.676Z,99.61
2024-01-18T13:40:03.436Z,99.49
2024-01-18T13:42:31.739Z,99.68
2024-01-18T13:45:01.320Z,100.00
2024-01-18T13:47:29.646Z,100.00
2024-01-18T13:49:57.899Z,100.00
2024-01-18T13:52:30.084Z,100.00
2024-01-18T13:54:59.124Z,100.00
2024-01-18T13:57:34.352Z,100.00
2024-01-18T14:02:52.163Z,100.00
2024-01-18T14:05:20.947Z,100.00
2024-01-18T14:07:49.414Z,100.00
2024-01-18T14:10:19.616Z,100.00
2024-01-18T14:12:47.852Z,100.00
2024-01-18T14:15:17.654Z,100.00
2024-01-18T14:17:46.013Z,100.00
2024-01-18T14:20:15.529Z,100.00
2024-01-18T14:22:46.213Z,100.00
2024-01-18T14:25:15.071Z,100.00
2024-01-18T14:27:43.829Z,100.00
2024-01-18T14:30:12.618Z,100.00
2024-01-18T14:32:42.114Z,100.00
2024-01-18T14:38:02.153Z,100.00
2024-01-18T14:40:30.344Z,100.00
2024-01-18T14:43:02.044Z,94.26
2024-01-18T14:45:31.994Z,89.76
2024-01-18T14:48:33.301Z,88.88
2024-01-18T14:51:01.909Z,87.21
2024-01-18T14:53:32.483Z,85.28
2024-01-18T14:56:00.759Z,85.91
2024-01-18T14:58:44.978Z,88.48
2024-01-18T15:01:19.004Z,90.54
2024-01-18T15:03:52.662Z,92.08
2024-01-18T15:06:23.435Z,93.45
2024-01-18T15:08:51.782Z,94.57
2024-01-18T15:11:21.294Z,95.78
2024-01-18T15:13:49.549Z,96.67
2024-01-18T15:16:19.393Z,97.59
2024-01-18T15:18:51.569Z,98.65
2024-01-18T15:21:25.176Z,99.56
2024-01-18T15:23:53.439Z,100.00
2024-01-18T15:26:21.696Z,100.00
2024-01-18T15:28:49.901Z,100.00
2024-01-18T15:31:19.709Z,100.00
2024-01-18T15:33:48.013Z,100.00
2024-01-18T15:36:16.261Z,100.00
2024-01-18T15:39:01.947Z,100.00
2024-01-18T15:41:30.154Z,100.00
2024-01-18T15:44:01.701Z,100.00
2024-01-18T15:46:30.128Z,100.00
2024-01-18T15:49:01.214Z,100.00
2024-01-18T15:51:29.968Z,100.00
2024-01-18T15:53:58.614Z,100.00
2024-01-18T15:56:28.297Z,100.00
2024-01-18T15:58:56.897Z,100.00
2024-01-18T16:01:46.625Z,100.00
2024-01-18T16:04:33.970Z,100.00
2024-01-18T16:07:25.066Z,100.00
2024-01-18T16:09:57.936Z,100.00
2024-01-18T16:12:26.400Z,100.00
2024-01-18T16:15:02.708Z,100.00
2024-01-18T16:17:31.045Z,100.00
2024-01-18T16:20:00.988Z,100.00
2024-01-18T16:22:29.989Z,100.00
2024-01-18T16:25:02.440Z,100.00
2024-01-18T16:27:30.749Z,100.00
2024-01-18T16:30:03.548Z,100.00
2024-01-18T16:32:37.600Z,100.00
2024-01-18T16:35:25.136Z,100.00
2024-01-18T16:37:56.111Z,100.00
2024-01-18T16:40:24.396Z,100.00
2024-01-18T16:42:52.722Z,100.00
2024-01-18T16:45:21.172Z,100.00
2024-01-18T16:47:49.561Z,100.00
2024-01-18T16:50:19.268Z,100.00
2024-01-18T16:52:47.792Z,100.00
2024-01-18T16:55:18.031Z,100.00
2024-01-18T17:00:17.986Z,100.00
2024-01-18T17:02:47.576Z,100.00
2024-01-18T17:05:18.109Z,100.00
2024-01-18T17:07:46.383Z,100.00
2024-01-18T17:10:28.953Z,100.00
2024-01-18T17:12:57.559Z,100.00
2024-01-18T17:15:32.733Z,100.00
2024-01-18T17:18:01.056Z,100.00
2024-01-18T17:20:30.975Z,100.00
2024-01-18T17:23:00.788Z,100.00
2024-01-18T17:25:41.802Z,100.00
2024-01-18T17:28:10.164Z,100.00
2024-01-18T17:30:38.446Z,100.00
2024-01-18T17:33:07.397Z,100.00
2024-01-18T17:35:37.211Z,100.00
2024-01-18T17:38:34.318Z,100.00
2024-01-18T17:41:46.818Z,100.00
2024-01-18T17:44:32.581Z,100.00
2024-01-18T17:47:01.237Z,100.00
2024-01-18T17:49:36.360Z,100.00
2024-01-18T17:52:05.357Z,100.00
2024-01-18T17:54:33.580Z,100.00
2024-01-18T17:57:01.974Z,100.00
2024-01-18T17:59:48.975Z,100.00
2024-01-18T18:02:24.453Z,100.00
2024-01-18T18:04:53.157Z,100.00
2024-01-18T18:07:22.420Z,100.00
2024-01-18T18:09:50.692Z,100.00
2024-01-18T18:12:21.694Z,100.00
2024-01-18T18:14:50.908Z,100.00
2024-01-18T18:17:23.362Z,100.00
2024-01-18T18:19:51.856Z,100.00
2024-01-18T18:22:24.094Z,100.00
2024-01-18T18:24:52.838Z,100.00
2024-01-18T18:27:58.998Z,100.00
2024-01-18T18:30:31.811Z,100.00
2024-01-18T18:35:52.055Z,100.00
2024-01-18T18:38:27.491Z,100.00
2024-01-18T18:41:01.153Z,100.00
2024-01-18T18:43:30.506Z,100.00
2024-01-18T18:46:00.203Z,100.00
2024-01-18T18:48:52.482Z,100.00
2024-01-18T18:51:23.252Z,100.00
2024-01-18T18:53:53.736Z,100.00
2024-01-18T18:56:23.615Z,100.00
2024-01-18T18:58:52.163Z,100.00
2024-01-18T19:01:20.556Z,100.00
2024-01-18T19:03:48.899Z,100.00
2024-01-18T19:06:18.513Z,100.00
2024-01-18T19:08:46.985Z,100.00
2024-01-18T19:11:15.263Z,100.00
2024-01-18T19:13:43.497Z,100.00
2024-01-18T19:16:13.397Z,100.00
2024-01-18T19:18:43.728Z,100.00
2024-01-18T19:21:16.003Z,100.00
2024-01-18T19:24:07.098Z,100.00
2024-01-18T19:26:35.327Z,100.00
2024-01-18T19:29:03.794Z,100.00
2024-01-18T19:31:32.682Z,100.00
2024-01-18T19:34:01.300Z,100.00
2024-01-18T19:36:29.573Z,100.00
2024-01-18T19:38:58.255Z,100.00
2024-01-18T19:41:29.035Z,100.00
2024-01-18T19:43:57.415Z,100.00
2024-01-18T19:46:25.627Z,100.00
2024-01-18T19:48:55.850Z,100.00
2024-01-18T19:51:29.398Z,100.00
2024-01-18T19:53:57.809Z,100.00
2024-01-18T19:56:26.055Z,100.00
2024-01-18T19:59:15.009Z,100.00
2024-01-18T20:01:43.292Z,100.00
2024-01-18T20:04:11.539Z,100.00
2024-01-18T20:06:39.927Z,100.00
2024-01-18T20:09:08.335Z,100.00
2024-01-18T20:11:37.024Z,100.00
2024-01-18T20:14:05.525Z,100.00
2024-01-18T20:16:34.696Z,100.00
2024-01-18T20:19:03.640Z,100.00
2024-01-18T20:21:33.191Z,100.00
2024-01-18T20:24:02.371Z,100.00
2024-01-18T20:26:30.993Z,100.00
2024-01-18T20:28:59.966Z,100.00
2024-01-18T20:31:28.330Z,100.00
2024-01-18T20:37:21.925Z,100.00
2024-01-18T20:39:50.291Z,100.00
2024-01-18T20:42:24.272Z,100.00
2024-01-18T20:44:52.835Z,100.00
2024-01-18T20:47:23.543Z,100.00
2024-01-18T20:49:51.808Z,100.00
2024-01-18T20:52:26.973Z,100.00
2024-01-18T20:54:55.449Z,100.00
2024-01-18T20:57:24.810Z,100.00
2024-01-18T20:59:53.081Z,100.00
2024-01-18T21:02:44.084Z,100.00
2024-01-18T21:05:12.503Z,100.00
2024-01-18T21:07:41.017Z,100.00
2024-01-18T21:10:13.565Z,100.00
2024-01-18T21:12:43.166Z,100.00
2024-01-18T21:15:11.428Z,100.00
2024-01-18T21:17:41.299Z,100.00
2024-01-18T21:20:12.101Z,100.00
2024-01-18T21:22:40.663Z,100.00
2024-01-18T21:25:09.027Z,100.00
2024-01-18T21:27:37.229Z,100.00
2024-01-18T21:30:06.628Z,100.00
2024-01-18T21:32:35.505Z,100.00
2024-01-18T21:35:04.076Z,100.00
2024-01-18T21:37:49.669Z,100.00
2024-01-18T21:40:20.967Z,100.00
2024-01-18T21:42:51.008Z,100.00
2024-01-18T21:45:23.660Z,100.00
2024-01-18T21:47:56.828Z,100.00
2024-01-18T21:50:26.828Z,100.00
2024-01-18T21:52:55.898Z,100.00
2024-01-18T21:55:24.586Z,100.00
2024-01-18T21:57:54.358Z,100.00
2024-01-18T22:00:23.608Z,100.00
2024-01-18T22:02:56.553Z,100.00
2024-01-18T22:05:53.878Z,100.00
2024-01-18T22:08:22.880Z,100.00
2024-01-18T22:10:51.205Z,100.00
2024-01-18T22:13:19.963Z,100.00
2024-01-18T22:15:48.222Z,100.00
2024-01-18T22:18:18.822Z,100.00
2024-01-18T22:20:47.828Z,100.00
2024-01-18T22:23:17.668Z,100.00
2024-01-18T22:25:46.205Z,100.00
2024-01-18T22:28:15.015Z,100.00
2024-01-18T22:30:43.636Z,100.00
2024-01-18T22:33:14.691Z,100.00
2024-01-18T22:35:43.253Z,100.00
2024-01-18T22:38:11.643Z,100.00
2024-01-18T22:40:59.811Z,100.00
2024-01-18T22:43:28.014Z,100.00
2024-01-18T22:45:56.289Z,100.00
2024-01-18T22:48:32.657Z,100.00
2024-01-18T22:51:01.001Z,100.00
2024-01-18T22:53:29.883Z,100.00
2024-01-18T22:55:58.125Z,100.00
2024-01-18T22:58:26.415Z,100.00
2024-01-18T23:00:54.960Z,100.00
2024-01-18T23:03:23.376Z,100.00
2024-01-18T23:05:53.449Z,100.00
2024-01-18T23:08:23.790Z,100.00
2024-01-18T23:10:52.876Z,100.00
2024-01-18T23:13:21.087Z,100.00
2024-01-18T23:16:15.537Z,100.00
2024-01-18T23:18:44.450Z,100.00
2024-01-18T23:21:12.706Z,100.00
2024-01-18T23:23:43.052Z,100.00
2024-01-18T23:26:11.360Z,100.00
2024-01-18T23:28:39.589Z,100.00
2024-01-18T23:31:07.766Z,100.00
2024-01-18T23:33:36.797Z,100.00
2024-01-18T23:36:05.737Z,100.00
2024-01-18T23:38:34.856Z,100.00
2024-01-18T23:41:03.230Z,100.00
2024-01-18T23:43:32.211Z,100.00
2024-01-18T23:46:02.209Z,100.00
2024-01-18T23:48:31.040Z,100.00
2024-01-18T23:51:32.121Z,100.00
2024-01-18T23:54:00.343Z,100.00
2024-01-18T23:56:29.755Z,100.00
2024-01-18T23:58:59.711Z,100.00
